createdAt,value
2018-11-21T00:00:20.229Z,16.10
2018-11-21T00:02:50.206Z,15.93
2018-11-21T00:05:19.041Z,15.73
2018-11-21T00:07:47.994Z,16.37
2018-11-21T00:10:17.965Z,15.43
2018-11-21T00:12:49.323Z,15.80
2018-11-21T00:15:18.150Z,16.37
2018-11-21T00:17:47.357Z,17.00
2018-11-21T00:20:16.228Z,15.03
2018-11-21T00:22:45.163Z,16.40
2018-11-21T00:25:16.552Z,17.07
2018-11-21T00:27:46.160Z,16.70
2018-11-21T00:30:16.278Z,17.97
2018-11-21T00:32:45.759Z,17.67
2018-11-21T00:35:14.724Z,16.40
2018-11-21T00:37:44.308Z,18.57
2018-11-21T00:40:14.563Z,17.33
2018-11-21T00:42:46.921Z,17.33
2018-11-21T00:45:12.362Z,17.60
2018-11-21T00:47:41.246Z,15.47
2018-11-21T00:50:10.240Z,17.03
2018-11-21T00:52:39.127Z,15.45
2018-11-21T00:55:08.167Z,17.60
2018-11-21T00:57:37.126Z,16.87
2018-11-21T01:00:08.764Z,18.10
2018-11-21T01:02:38.041Z,16.73
2018-11-21T01:05:07.693Z,16.73
2018-11-21T01:07:36.880Z,16.93
2018-11-21T01:10:06.009Z,17.73
2018-11-21T01:12:34.885Z,17.70
2018-11-21T01:15:04.212Z,17.43
2018-11-21T01:17:33.089Z,16.73
2018-11-21T01:20:02.083Z,16.70
2018-11-21T01:22:31.709Z,18.23
2018-11-21T01:25:00.760Z,16.00
2018-11-21T01:27:29.677Z,17.40
2018-11-21T01:29:58.720Z,18.80
2018-11-21T01:32:27.613Z,17.53
2018-11-21T01:34:56.910Z,16.87
2018-11-21T01:37:25.975Z,18.93
2018-11-21T01:39:55.215Z,17.13
2018-11-21T01:42:24.110Z,18.47
2018-11-21T01:44:53.401Z,17.17
2018-11-21T01:47:22.418Z,17.30
2018-11-21T01:49:51.544Z,17.05
2018-11-21T01:52:20.433Z,18.10
2018-11-21T01:54:51.485Z,17.40
2018-11-21T01:57:20.434Z,17.87
2018-11-21T01:59:49.523Z,17.13
2018-11-21T02:02:18.433Z,17.47
2018-11-21T02:04:47.512Z,17.20
2018-11-21T02:07:16.442Z,17.87
2018-11-21T02:09:45.440Z,18.27
2018-11-21T02:12:14.363Z,18.00
2018-11-21T02:14:43.606Z,17.63
2018-11-21T02:17:12.643Z,18.90
2018-11-21T02:19:41.607Z,18.23
2018-11-21T02:22:10.602Z,18.13
2018-11-21T02:24:39.795Z,17.43
2018-11-21T02:27:08.643Z,18.10
2018-11-21T02:29:37.649Z,16.20
2018-11-21T02:32:06.994Z,17.10
2018-11-21T02:34:35.807Z,18.42
2018-11-21T02:37:04.872Z,18.07
2018-11-21T02:39:33.717Z,17.47
2018-11-21T02:42:02.643Z,18.23
2018-11-21T02:44:31.482Z,17.20
2018-11-21T02:47:00.397Z,18.93
2018-11-21T02:49:29.503Z,17.50
2018-11-21T02:52:00.123Z,17.07
2018-11-21T02:54:29.200Z,17.83
2018-11-21T02:57:36.630Z,17.00
2018-11-21T03:00:13.915Z,16.27
2018-11-21T03:02:43.125Z,15.70
2018-11-21T03:05:12.052Z,15.77
2018-11-21T03:07:50.307Z,17.10
2018-11-21T03:10:21.037Z,17.30
2018-11-21T03:12:50.430Z,16.97
2018-11-21T03:15:19.695Z,18.57
2018-11-21T03:17:48.679Z,17.60
2018-11-21T03:20:17.757Z,17.60
2018-11-21T03:22:46.887Z,16.70
2018-11-21T03:25:15.957Z,17.83
2018-11-21T03:27:45.124Z,18.30
2018-11-21T03:30:14.041Z,18.43
2018-11-21T03:32:43.201Z,16.97
2018-11-21T03:35:12.074Z,17.93
2018-11-21T03:37:41.718Z,18.73
2018-11-21T03:40:12.030Z,17.43
2018-11-21T03:42:41.185Z,18.33
2018-11-21T03:45:11.314Z,18.67
2018-11-21T03:47:40.435Z,17.83
2018-11-21T03:50:10.910Z,19.00
2018-11-21T03:52:39.883Z,18.57
2018-11-21T03:55:09.672Z,19.33
2018-11-21T03:57:38.795Z,18.90
2018-11-21T04:00:10.204Z,18.30
2018-11-21T04:02:39.160Z,18.53
2018-11-21T04:05:08.953Z,18.80
2018-11-21T04:07:38.118Z,18.30
2018-11-21T04:10:11.720Z,19.53
2018-11-21T04:12:40.908Z,18.47
2018-11-21T04:15:11.797Z,18.53
2018-11-21T04:17:40.967Z,19.20
2018-11-21T04:20:10.190Z,19.23
2018-11-21T04:22:39.485Z,18.20
2018-11-21T04:25:09.710Z,17.53
2018-11-21T04:27:38.637Z,18.17
2018-11-21T04:30:09.515Z,18.87
2018-11-21T04:32:38.802Z,18.23
2018-11-21T04:35:08.870Z,19.37
2018-11-21T04:37:37.915Z,20.33
2018-11-21T04:40:07.915Z,18.90
2018-11-21T04:42:37.364Z,19.80
2018-11-21T04:45:08.038Z,19.03
2018-11-21T04:47:37.045Z,19.13
2018-11-21T04:50:06.757Z,18.37
2018-11-21T04:52:35.676Z,19.00
2018-11-21T04:55:06.032Z,19.27
2018-11-21T04:57:37.974Z,19.23
2018-11-21T05:00:08.958Z,19.37
2018-11-21T05:02:37.781Z,20.00
2018-11-21T05:05:08.671Z,18.90
2018-11-21T05:07:38.074Z,19.10
2018-11-21T05:10:08.168Z,21.23
2018-11-21T05:12:37.676Z,19.17
2018-11-21T05:15:11.238Z,20.13
2018-11-21T05:17:41.427Z,19.20
2018-11-21T05:20:10.415Z,20.20
2018-11-21T05:22:39.758Z,19.83
2018-11-21T05:25:10.610Z,19.73
2018-11-21T05:27:39.473Z,19.67
2018-11-21T05:30:10.880Z,20.53
2018-11-21T05:32:40.447Z,20.20
2018-11-21T05:35:10.241Z,22.03
2018-11-21T05:37:39.169Z,20.70
2018-11-21T05:40:09.603Z,20.13
2018-11-21T05:42:38.754Z,21.60
2018-11-21T05:45:10.363Z,20.37
2018-11-21T05:47:39.200Z,20.67
2018-11-21T05:50:10.498Z,20.10
2018-11-21T05:52:39.603Z,19.50
2018-11-21T05:55:08.606Z,20.97
2018-11-21T05:57:38.832Z,20.43
2018-11-21T06:00:12.477Z,21.00
2018-11-21T06:02:41.557Z,19.83
2018-11-21T06:05:11.639Z,20.93
2018-11-21T06:07:40.722Z,20.90
2018-11-21T06:10:11.504Z,22.10
2018-11-21T06:12:41.076Z,20.80
2018-11-21T06:15:10.687Z,21.33
2018-11-21T06:17:39.681Z,20.93
2018-11-21T06:20:10.858Z,20.70
2018-11-21T06:22:39.840Z,22.70
2018-11-21T06:25:09.628Z,22.27
2018-11-21T06:27:38.520Z,21.13
2018-11-21T06:30:09.974Z,21.30
2018-11-21T06:32:38.920Z,21.13
2018-11-21T06:35:08.525Z,22.00
2018-11-21T06:37:37.775Z,22.90
2018-11-21T06:40:09.618Z,21.30
2018-11-21T06:42:38.632Z,22.67
2018-11-21T06:45:09.321Z,21.87
2018-11-21T06:47:38.272Z,21.53
2018-11-21T06:50:07.644Z,20.60
2018-11-21T06:52:36.601Z,21.43
2018-11-21T06:55:06.122Z,21.57
2018-11-21T06:57:35.016Z,22.33
2018-11-21T07:00:03.908Z,21.17
2018-11-21T07:02:32.926Z,21.77
2018-11-21T07:05:01.853Z,20.97
2018-11-21T07:07:30.806Z,21.97
2018-11-21T07:09:59.838Z,23.00
2018-11-21T07:12:28.803Z,23.23
2018-11-21T07:14:57.811Z,22.57
2018-11-21T07:17:26.846Z,22.40
2018-11-21T07:19:55.693Z,22.50
2018-11-21T07:22:24.658Z,20.55
2018-11-21T07:24:53.563Z,21.27
2018-11-21T07:27:22.523Z,21.83
2018-11-21T07:29:51.408Z,23.07
2018-11-21T07:32:26.626Z,22.33
2018-11-21T07:34:56.013Z,23.07
2018-11-21T07:37:25.069Z,22.30
2018-11-21T07:39:54.080Z,22.40
2018-11-21T07:42:23.172Z,22.47
2018-11-21T07:44:52.775Z,21.93
2018-11-21T07:47:26.563Z,21.77
2018-11-21T07:49:50.929Z,21.77
2018-11-21T07:52:20.013Z,21.50
2018-11-21T07:54:48.956Z,21.83
2018-11-21T07:57:41.262Z,21.67
2018-11-21T08:01:04.308Z,20.47
2018-11-21T08:03:35.289Z,22.10
2018-11-21T08:06:09.497Z,21.10
2018-11-21T08:08:59.680Z,21.70
2018-11-21T08:11:59.078Z,21.67
2018-11-21T08:14:52.855Z,20.80
2018-11-21T08:17:41.027Z,22.57
2018-11-21T08:20:28.095Z,21.33
2018-11-21T08:23:28.499Z,22.33
2018-11-21T08:26:34.888Z,21.97
2018-11-21T08:29:03.969Z,22.43
2018-11-21T08:31:32.961Z,22.50
2018-11-21T08:34:02.246Z,21.50
2018-11-21T08:36:31.195Z,22.57
2018-11-21T08:39:00.320Z,22.03
2018-11-21T08:41:29.589Z,22.33
2018-11-21T08:43:58.905Z,22.90
2018-11-21T08:46:29.148Z,22.53
2018-11-21T08:48:57.484Z,22.40
2018-11-21T08:51:26.524Z,20.50
2018-11-21T08:53:55.788Z,20.80
2018-11-21T08:56:24.702Z,21.77
2018-11-21T08:58:53.806Z,21.60
2018-11-21T09:01:22.853Z,20.80
2018-11-21T09:03:51.908Z,20.47
2018-11-21T09:06:21.088Z,22.30
2018-11-21T09:08:49.929Z,23.07
2018-11-21T09:11:19.014Z,21.90
2018-11-21T09:13:48.938Z,19.27
2018-11-21T09:16:17.167Z,21.27
2018-11-21T09:18:46.177Z,21.37
2018-11-21T09:21:15.184Z,23.63
2018-11-21T09:23:44.294Z,21.77
2018-11-21T09:26:13.268Z,20.27
2018-11-21T09:28:42.377Z,20.80
2018-11-21T09:31:11.512Z,20.87
2018-11-21T09:33:40.537Z,21.57
2018-11-21T09:36:09.578Z,22.60
2018-11-21T09:38:38.770Z,21.27
2018-11-21T09:41:07.800Z,20.73
2018-11-21T09:43:36.986Z,19.73
2018-11-21T09:46:06.276Z,20.63
2018-11-21T09:48:35.416Z,22.30
2018-11-21T09:51:04.662Z,21.10
2018-11-21T09:53:33.699Z,19.87
2018-11-21T09:56:02.603Z,19.83
2018-11-21T09:58:31.548Z,19.83
2018-11-21T10:01:36.846Z,19.83
2018-11-21T10:04:06.471Z,19.80
2018-11-21T10:06:37.778Z,19.27
2018-11-21T10:09:11.996Z,19.60
2018-11-21T10:11:41.102Z,21.00
2018-11-21T10:14:10.184Z,19.87
2018-11-21T10:16:39.163Z,20.83
2018-11-21T10:19:08.328Z,20.80
2018-11-21T10:21:37.430Z,21.30
2018-11-21T10:24:06.437Z,21.07
2018-11-21T10:26:35.491Z,22.40
2018-11-21T10:29:04.505Z,20.33
2018-11-21T10:31:41.278Z,20.47
2018-11-21T10:34:10.833Z,21.50
2018-11-21T10:36:39.947Z,20.83
2018-11-21T10:39:10.111Z,20.90
2018-11-21T10:41:39.081Z,21.57
2018-11-21T10:44:08.124Z,21.03
2018-11-21T10:46:37.413Z,20.63
2018-11-21T10:49:07.208Z,21.93
2018-11-21T10:51:36.313Z,22.33
2018-11-21T10:54:05.348Z,20.40
2018-11-21T10:56:34.362Z,20.13
2018-11-21T10:59:03.497Z,21.43
2018-11-21T11:01:50.398Z,19.63
2018-11-21T11:04:33.234Z,18.87
2018-11-21T11:07:27.226Z,18.73
2018-11-21T11:10:15.713Z,20.13
2018-11-21T11:13:06.637Z,18.63
2018-11-21T11:15:53.343Z,17.93
2018-11-21T11:18:47.348Z,19.13
2018-11-21T11:21:47.573Z,20.17
2018-11-21T11:24:41.429Z,19.43
2018-11-21T11:27:24.791Z,19.30
2018-11-21T11:30:30.869Z,18.57
2018-11-21T11:33:19.016Z,19.03
2018-11-21T11:36:05.828Z,19.77
2018-11-21T11:39:09.156Z,19.63
2018-11-21T11:42:15.753Z,17.63
2018-11-21T11:45:02.634Z,18.20
2018-11-21T11:48:05.835Z,18.50
2018-11-21T11:50:52.221Z,17.77
2018-11-21T11:53:39.410Z,16.90
2018-11-21T11:56:35.115Z,17.77
2018-11-21T11:59:21.714Z,18.80
2018-11-21T12:02:08.575Z,18.80
2018-11-21T12:05:04.335Z,17.40
